Local area metar reports


Our local metar:
KGOO 250435Z AUTO 00000KT 10SM CLR 17/08 A3007 RMK AO1

Decoded:

station                        KGOO
observed_date Wed, 25 Apr 2018 04:35:00 +0000
observed_age 11 min. ago
wind_speed 0
wind_direction 0
wind_direction_label N
visibility_report 10 miles
present_weather_report Dry
clouds_report Clear skies
temperature_f 63
dew_point_f 46
humidity 56
barometer 30.07
remarks AO1



Auburn's metar:
KAUN 250435Z AUTO 00000KT 10SM CLR 17/10 A3001 RMK AO1

Decoded:

station                        KAUN
observed_date Wed, 25 Apr 2018 04:35:00 +0000
observed_age 11 min. ago
wind_speed 0
wind_direction 0
wind_direction_label N
visibility_report 10 miles
present_weather_report Dry
clouds_report Clear skies
temperature_f 63
dew_point_f 50
humidity 64
barometer 30.01
remarks AO1



Lincoln's metar:
KLHM 250435Z AUTO 00000KT 10SM CLR 16/06 A2995 RMK AO1

Decoded:

station                        KLHM
observed_date Wed, 25 Apr 2018 04:35:00 +0000
observed_age 11 min. ago
wind_speed 0
wind_direction 0
wind_direction_label N
visibility_report 10 miles
present_weather_report Dry
clouds_report Clear skies
temperature_f 61
dew_point_f 43
humidity 52
barometer 29.95
remarks AO1